sensor_id;sensor_type;location;lat;lon;timestamp;P1;durP1;ratioP1;P2;durP2;ratioP2
4290;SDS011;2159;50.906;7.152;2023-02-01T00:02:15;18.03;;;8.80;;
4290;SDS011;2159;50.906;7.152;2023-02-01T00:04:42;18.70;;;8.27;;
4290;SDS011;2159;50.906;7.152;2023-02-01T00:07:10;17.90;;;8.43;;
4290;SDS011;2159;50.906;7.152;2023-02-01T00:09:39;24.13;;;7.63;;
4290;SDS011;2159;50.906;7.152;2023-02-01T00:12:07;15.47;;;7.30;;
4290;SDS011;2159;50.906;7.152;2023-02-01T00:14:34;15.23;;;7.43;;
4290;SDS011;2159;50.906;7.152;2023-02-01T00:17:05;20.90;;;7.90;;
4290;SDS011;2159;50.906;7.152;2023-02-01T00:19:34;14.00;;;6.63;;
4290;SDS011;2159;50.906;7.152;2023-02-01T00:22:02;23.10;;;6.80;;
4290;SDS011;2159;50.906;7.152;2023-02-01T00:24:29;15.87;;;7.30;;
4290;SDS011;2159;50.906;7.152;2023-02-01T00:26:57;16.07;;;7.73;;
4290;SDS011;2159;50.906;7.152;2023-02-01T00:29:24;16.67;;;7.40;;
4290;SDS011;2159;50.906;7.152;2023-02-01T00:31:52;18.17;;;7.37;;
4290;SDS011;2159;50.906;7.152;2023-02-01T00:34:20;11.70;;;6.73;;
4290;SDS011;2159;50.906;7.152;2023-02-01T00:36:49;19.00;;;7.77;;
4290;SDS011;2159;50.906;7.152;2023-02-01T00:39:16;20.17;;;6.90;;
4290;SDS011;2159;50.906;7.152;2023-02-01T00:41:44;23.40;;;6.80;;
4290;SDS011;2159;50.906;7.152;2023-02-01T00:44:11;12.77;;;6.93;;
4290;SDS011;2159;50.906;7.152;2023-02-01T00:46:39;16.43;;;7.47;;
4290;SDS011;2159;50.906;7.152;2023-02-01T00:49:06;17.70;;;7.40;;
4290;SDS011;2159;50.906;7.152;2023-02-01T00:51:35;22.30;;;7.63;;
4290;SDS011;2159;50.906;7.152;2023-02-01T00:54:04;17.67;;;8.27;;
4290;SDS011;2159;50.906;7.152;2023-02-01T00:56:32;16.90;;;7.73;;
4290;SDS011;2159;50.906;7.152;2023-02-01T00:58:59;20.00;;;7.90;;
4290;SDS011;2159;50.906;7.152;2023-02-01T01:01:27;17.23;;;6.93;;
4290;SDS011;2159;50.906;7.152;2023-02-01T01:03:55;22.03;;;7.80;;
4290;SDS011;2159;50.906;7.152;2023-02-01T01:06:23;15.90;;;6.30;;
4290;SDS011;2159;50.906;7.152;2023-02-01T01:08:51;21.43;;;7.33;;
4290;SDS011;2159;50.906;7.152;2023-02-01T01:11:21;16.13;;;6.77;;
4290;SDS011;2159;50.906;7.152;2023-02-01T01:13:49;21.80;;;6.40;;
4290;SDS011;2159;50.906;7.152;2023-02-01T01:16:18;12.40;;;5.80;;
4290;SDS011;2159;50.906;7.152;2023-02-01T01:18:46;17.10;;;6.03;;
4290;SDS011;2159;50.906;7.152;2023-02-01T01:21:14;12.00;;;5.27;;
4290;SDS011;2159;50.906;7.152;2023-02-01T01:23:42;15.93;;;5.00;;
4290;SDS011;2159;50.906;7.152;2023-02-01T01:26:10;17.27;;;5.77;;
4290;SDS011;2159;50.906;7.152;2023-02-01T01:28:39;22.80;;;4.63;;
4290;SDS011;2159;50.906;7.152;2023-02-01T01:31:07;15.20;;;4.50;;
4290;SDS011;2159;50.906;7.152;2023-02-01T01:33:35;8.60;;;4.60;;
4290;SDS011;2159;50.906;7.152;2023-02-01T01:36:04;16.77;;;4.40;;
4290;SDS011;2159;50.906;7.152;2023-02-01T01:38:31;15.53;;;4.70;;
4290;SDS011;2159;50.906;7.152;2023-02-01T01:40:59;9.97;;;4.13;;
4290;SDS011;2159;50.906;7.152;2023-02-01T01:46:11;15.30;;;4.50;;
4290;SDS011;2159;50.906;7.152;2023-02-01T01:48:42;10.93;;;3.87;;
4290;SDS011;2159;50.906;7.152;2023-02-01T01:51:10;15.17;;;4.23;;
4290;SDS011;2159;50.906;7.152;2023-02-01T01:53:41;12.17;;;3.93;;
4290;SDS011;2159;50.906;7.152;2023-02-01T01:56:10;14.40;;;3.80;;
4290;SDS011;2159;50.906;7.152;2023-02-01T01:58:38;14.13;;;4.63;;
4290;SDS011;2159;50.906;7.152;2023-02-01T02:01:06;6.40;;;3.43;;
4290;SDS011;2159;50.906;7.152;2023-02-01T02:03:37;8.13;;;3.40;;
4290;SDS011;2159;50.906;7.152;2023-02-01T02:06:05;11.70;;;3.20;;
4290;SDS011;2159;50.906;7.152;2023-02-01T02:08:36;11.00;;;3.33;;
4290;SDS011;2159;50.906;7.152;2023-02-01T02:11:04;15.70;;;3.70;;
4290;SDS011;2159;50.906;7.152;2023-02-01T02:13:32;11.27;;;3.30;;
4290;SDS011;2159;50.906;7.152;2023-02-01T02:16:05;13.10;;;3.23;;
4290;SDS011;2159;50.906;7.152;2023-02-01T02:18:37;8.10;;;3.30;;
4290;SDS011;2159;50.906;7.152;2023-02-01T02:21:12;9.90;;;2.93;;
4290;SDS011;2159;50.906;7.152;2023-02-01T02:23:55;9.10;;;3.30;;
4290;SDS011;2159;50.906;7.152;2023-02-01T02:32:07;9.10;;;2.87;;
4290;SDS011;2159;50.906;7.152;2023-02-01T02:34:39;8.00;;;3.30;;
4290;SDS011;2159;50.906;7.152;2023-02-01T02:37:09;10.07;;;3.90;;
4290;SDS011;2159;50.906;7.152;2023-02-01T02:39:44;14.10;;;2.97;;
4290;SDS011;2159;50.906;7.152;2023-02-01T02:42:17;9.47;;;3.97;;
4290;SDS011;2159;50.906;7.152;2023-02-01T02:45:06;7.23;;;3.53;;
4290;SDS011;2159;50.906;7.152;2023-02-01T02:47:54;13.13;;;3.80;;
4290;SDS011;2159;50.906;7.152;2023-02-01T02:50:25;10.57;;;3.90;;
4290;SDS011;2159;50.906;7.152;2023-02-01T02:53:27;13.30;;;3.90;;
4290;SDS011;2159;50.906;7.152;2023-02-01T02:56:13;9.57;;;3.73;;
4290;SDS011;2159;50.906;7.152;2023-02-01T02:59:00;12.00;;;3.80;;
4290;SDS011;2159;50.906;7.152;2023-02-01T03:01:46;13.50;;;3.97;;
4290;SDS011;2159;50.906;7.152;2023-02-01T03:04:31;7.43;;;3.93;;
4290;SDS011;2159;50.906;7.152;2023-02-01T03:07:10;9.43;;;4.00;;
4290;SDS011;2159;50.906;7.152;2023-02-01T03:09:38;13.03;;;4.07;;
4290;SDS011;2159;50.906;7.152;2023-02-01T03:12:08;9.90;;;4.00;;
4290;SDS011;2159;50.906;7.152;2023-02-01T03:14:56;11.10;;;4.73;;
4290;SDS011;2159;50.906;7.152;2023-02-01T03:17:25;12.60;;;4.40;;
4290;SDS011;2159;50.906;7.152;2023-02-01T03:19:54;11.30;;;4.20;;
4290;SDS011;2159;50.906;7.152;2023-02-01T03:22:26;9.60;;;4.53;;
4290;SDS011;2159;50.906;7.152;2023-02-01T03:25:00;14.57;;;4.30;;
4290;SDS011;2159;50.906;7.152;2023-02-01T03:27:29;18.00;;;4.73;;
4290;SDS011;2159;50.906;7.152;2023-02-01T03:29:59;11.33;;;4.10;;
4290;SDS011;2159;50.906;7.152;2023-02-01T03:32:28;13.70;;;4.50;;
4290;SDS011;2159;50.906;7.152;2023-02-01T03:35:15;9.87;;;4.00;;
4290;SDS011;2159;50.906;7.152;2023-02-01T03:37:45;10.90;;;4.30;;
4290;SDS011;2159;50.906;7.152;2023-02-01T03:40:13;14.23;;;5.30;;
4290;SDS011;2159;50.906;7.152;2023-02-01T03:42:46;7.90;;;4.00;;
4290;SDS011;2159;50.906;7.152;2023-02-01T03:45:16;10.60;;;4.30;;
4290;SDS011;2159;50.906;7.152;2023-02-01T03:47:47;14.93;;;4.87;;
4290;SDS011;2159;50.906;7.152;2023-02-01T03:50:15;12.03;;;4.70;;
4290;SDS011;2159;50.906;7.152;2023-02-01T03:52:47;9.30;;;4.60;;
4290;SDS011;2159;50.906;7.152;2023-02-01T03:55:16;12.23;;;4.50;;
4290;SDS011;2159;50.906;7.152;2023-02-01T03:57:48;13.13;;;4.63;;
4290;SDS011;2159;50.906;7.152;2023-02-01T04:00:19;14.73;;;4.63;;
4290;SDS011;2159;50.906;7.152;2023-02-01T04:02:48;15.10;;;4.70;;
4290;SDS011;2159;50.906;7.152;2023-02-01T04:05:16;15.93;;;4.30;;
4290;SDS011;2159;50.906;7.152;2023-02-01T04:07:45;16.23;;;4.77;;
4290;SDS011;2159;50.906;7.152;2023-02-01T04:10:13;16.60;;;4.97;;
4290;SDS011;2159;50.906;7.152;2023-02-01T04:12:43;11.83;;;4.47;;
4290;SDS011;2159;50.906;7.152;2023-02-01T04:15:10;9.30;;;4.03;;
4290;SDS011;2159;50.906;7.152;2023-02-01T04:17:38;10.43;;;4.60;;
4290;SDS011;2159;50.906;7.152;2023-02-01T04:20:06;11.40;;;3.97;;
4290;SDS011;2159;50.906;7.152;2023-02-01T04:22:35;17.80;;;4.57;;
4290;SDS011;2159;50.906;7.152;2023-02-01T04:25:04;11.23;;;4.10;;
4290;SDS011;2159;50.906;7.152;2023-02-01T04:27:32;11.97;;;3.87;;
4290;SDS011;2159;50.906;7.152;2023-02-01T04:29:59;16.83;;;4.37;;
4290;SDS011;2159;50.906;7.152;2023-02-01T04:32:27;14.63;;;5.23;;
4290;SDS011;2159;50.906;7.152;2023-02-01T04:34:54;9.63;;;3.73;;
4290;SDS011;2159;50.906;7.152;2023-02-01T04:37:22;12.50;;;4.37;;
4290;SDS011;2159;50.906;7.152;2023-02-01T04:39:49;13.80;;;4.07;;
4290;SDS011;2159;50.906;7.152;2023-02-01T04:42:18;7.87;;;4.00;;
4290;SDS011;2159;50.906;7.152;2023-02-01T04:44:45;17.27;;;3.93;;
4290;SDS011;2159;50.906;7.152;2023-02-01T04:47:13;16.03;;;4.30;;
4290;SDS011;2159;50.906;7.152;2023-02-01T04:49:41;12.60;;;4.00;;
4290;SDS011;2159;50.906;7.152;2023-02-01T04:52:08;8.67;;;3.33;;
4290;SDS011;2159;50.906;7.152;2023-02-01T04:54:36;18.03;;;4.50;;
4290;SDS011;2159;50.906;7.152;2023-02-01T04:57:03;12.93;;;3.87;;
4290;SDS011;2159;50.906;7.152;2023-02-01T04:59:32;13.60;;;4.20;;
4290;SDS011;2159;50.906;7.152;2023-02-01T05:02:00;11.53;;;4.00;;
4290;SDS011;2159;50.906;7.152;2023-02-01T05:04:27;16.67;;;4.83;;
4290;SDS011;2159;50.906;7.152;2023-02-01T05:06:55;14.13;;;3.90;;
4290;SDS011;2159;50.906;7.152;2023-02-01T05:09:22;13.50;;;4.53;;
4290;SDS011;2159;50.906;7.152;2023-02-01T05:11:49;9.33;;;3.77;;
4290;SDS011;2159;50.906;7.152;2023-02-01T05:14:36;20.97;;;4.80;;
4290;SDS011;2159;50.906;7.152;2023-02-01T05:17:03;9.40;;;4.30;;
4290;SDS011;2159;50.906;7.152;2023-02-01T05:19:31;10.37;;;4.07;;
4290;SDS011;2159;50.906;7.152;2023-02-01T05:21:58;9.00;;;3.60;;
4290;SDS011;2159;50.906;7.152;2023-02-01T05:24:26;12.97;;;3.93;;
4290;SDS011;2159;50.906;7.152;2023-02-01T05:26:53;10.80;;;3.67;;
4290;SDS011;2159;50.906;7.152;2023-02-01T05:29:20;20.87;;;4.53;;
4290;SDS011;2159;50.906;7.152;2023-02-01T05:31:49;14.07;;;3.73;;
4290;SDS011;2159;50.906;7.152;2023-02-01T05:34:17;20.23;;;4.27;;
4290;SDS011;2159;50.906;7.152;2023-02-01T05:36:44;11.40;;;3.80;;
4290;SDS011;2159;50.906;7.152;2023-02-01T05:39:12;13.60;;;3.70;;
4290;SDS011;2159;50.906;7.152;2023-02-01T05:41:40;12.30;;;3.27;;
4290;SDS011;2159;50.906;7.152;2023-02-01T05:44:07;11.40;;;3.67;;
4290;SDS011;2159;50.906;7.152;2023-02-01T05:46:35;26.50;;;4.80;;
4290;SDS011;2159;50.906;7.152;2023-02-01T05:49:04;7.30;;;2.97;;
4290;SDS011;2159;50.906;7.152;2023-02-01T05:51:31;11.27;;;3.20;;
4290;SDS011;2159;50.906;7.152;2023-02-01T05:53:59;13.70;;;3.50;;
4290;SDS011;2159;50.906;7.152;2023-02-01T05:56:27;8.50;;;3.27;;
4290;SDS011;2159;50.906;7.152;2023-02-01T05:58:54;12.40;;;3.17;;
4290;SDS011;2159;50.906;7.152;2023-02-01T06:01:22;9.77;;;2.93;;
4290;SDS011;2159;50.906;7.152;2023-02-01T06:03:49;14.03;;;3.30;;
4290;SDS011;2159;50.906;7.152;2023-02-01T06:06:18;8.87;;;3.07;;
4290;SDS011;2159;50.906;7.152;2023-02-01T06:08:46;16.30;;;2.80;;
4290;SDS011;2159;50.906;7.152;2023-02-01T06:11:13;9.83;;;3.10;;
4290;SDS011;2159;50.906;7.152;2023-02-01T06:13:57;13.63;;;3.20;;
4290;SDS011;2159;50.906;7.152;2023-02-01T06:16:24;13.87;;;3.03;;
4290;SDS011;2159;50.906;7.152;2023-02-01T06:18:52;11.53;;;3.10;;
4290;SDS011;2159;50.906;7.152;2023-02-01T06:21:21;9.53;;;2.80;;
4290;SDS011;2159;50.906;7.152;2023-02-01T06:23:50;7.80;;;2.57;;
4290;SDS011;2159;50.906;7.152;2023-02-01T06:26:18;7.00;;;2.50;;
4290;SDS011;2159;50.906;7.152;2023-02-01T06:28:46;13.63;;;3.03;;
4290;SDS011;2159;50.906;7.152;2023-02-01T06:31:13;8.93;;;2.60;;
4290;SDS011;2159;50.906;7.152;2023-02-01T06:33:41;10.50;;;2.90;;
4290;SDS011;2159;50.906;7.152;2023-02-01T06:36:09;7.00;;;2.37;;
4290;SDS011;2159;50.906;7.152;2023-02-01T06:38:39;9.87;;;2.80;;
4290;SDS011;2159;50.906;7.152;2023-02-01T06:41:07;16.33;;;3.23;;
4290;SDS011;2159;50.906;7.152;2023-02-01T06:43:34;12.57;;;3.30;;
4290;SDS011;2159;50.906;7.152;2023-02-01T06:46:04;9.43;;;3.00;;
4290;SDS011;2159;50.906;7.152;2023-02-01T06:48:32;10.93;;;2.97;;
4290;SDS011;2159;50.906;7.152;2023-02-01T06:50:59;13.17;;;3.33;;
4290;SDS011;2159;50.906;7.152;2023-02-01T06:53:27;12.23;;;2.80;;
4290;SDS011;2159;50.906;7.152;2023-02-01T06:55:56;12.90;;;3.13;;
4290;SDS011;2159;50.906;7.152;2023-02-01T06:58:27;19.07;;;3.23;;
4290;SDS011;2159;50.906;7.152;2023-02-01T07:00:55;14.57;;;3.70;;
4290;SDS011;2159;50.906;7.152;2023-02-01T07:03:23;6.70;;;3.00;;
4290;SDS011;2159;50.906;7.152;2023-02-01T07:05:54;17.63;;;3.30;;
4290;SDS011;2159;50.906;7.152;2023-02-01T07:08:22;10.80;;;3.13;;
4290;SDS011;2159;50.906;7.152;2023-02-01T07:10:49;7.97;;;3.30;;
4290;SDS011;2159;50.906;7.152;2023-02-01T07:13:18;14.57;;;3.20;;
4290;SDS011;2159;50.906;7.152;2023-02-01T07:15:46;14.03;;;3.30;;
4290;SDS011;2159;50.906;7.152;2023-02-01T07:18:14;9.90;;;3.30;;
4290;SDS011;2159;50.906;7.152;2023-02-01T07:20:42;14.57;;;3.30;;
4290;SDS011;2159;50.906;7.152;2023-02-01T07:23:10;10.47;;;3.30;;
4290;SDS011;2159;50.906;7.152;2023-02-01T07:25:37;11.60;;;3.23;;
4290;SDS011;2159;50.906;7.152;2023-02-01T07:28:05;10.33;;;3.10;;
4290;SDS011;2159;50.906;7.152;2023-02-01T07:30:34;12.53;;;3.10;;
4290;SDS011;2159;50.906;7.152;2023-02-01T07:33:02;16.40;;;3.97;;
4290;SDS011;2159;50.906;7.152;2023-02-01T07:35:29;15.80;;;3.57;;
4290;SDS011;2159;50.906;7.152;2023-02-01T07:37:58;10.97;;;3.30;;
4290;SDS011;2159;50.906;7.152;2023-02-01T07:40:25;13.67;;;3.50;;
4290;SDS011;2159;50.906;7.152;2023-02-01T07:42:55;14.67;;;3.80;;
4290;SDS011;2159;50.906;7.152;2023-02-01T07:45:23;10.40;;;3.60;;
4290;SDS011;2159;50.906;7.152;2023-02-01T07:47:52;15.87;;;3.30;;
4290;SDS011;2159;50.906;7.152;2023-02-01T07:50:20;13.87;;;3.00;;
4290;SDS011;2159;50.906;7.152;2023-02-01T07:52:48;12.33;;;2.97;;
4290;SDS011;2159;50.906;7.152;2023-02-01T07:55:16;13.53;;;3.17;;
4290;SDS011;2159;50.906;7.152;2023-02-01T07:57:44;12.13;;;3.00;;
4290;SDS011;2159;50.906;7.152;2023-02-01T08:00:13;11.70;;;3.40;;
4290;SDS011;2159;50.906;7.152;2023-02-01T08:03:00;12.10;;;3.70;;
4290;SDS011;2159;50.906;7.152;2023-02-01T08:05:28;13.80;;;3.40;;
4290;SDS011;2159;50.906;7.152;2023-02-01T08:07:56;14.27;;;3.80;;
4290;SDS011;2159;50.906;7.152;2023-02-01T08:10:24;10.60;;;3.30;;
4290;SDS011;2159;50.906;7.152;2023-02-01T08:12:52;9.90;;;3.50;;
4290;SDS011;2159;50.906;7.152;2023-02-01T08:15:24;9.93;;;3.30;;
4290;SDS011;2159;50.906;7.152;2023-02-01T08:17:52;16.47;;;3.60;;
4290;SDS011;2159;50.906;7.152;2023-02-01T08:20:22;14.67;;;3.40;;
4290;SDS011;2159;50.906;7.152;2023-02-01T08:22:50;18.70;;;3.77;;
4290;SDS011;2159;50.906;7.152;2023-02-01T08:25:20;17.63;;;3.70;;
4290;SDS011;2159;50.906;7.152;2023-02-01T08:27:47;13.83;;;3.30;;
4290;SDS011;2159;50.906;7.152;2023-02-01T08:30:15;18.00;;;4.40;;
4290;SDS011;2159;50.906;7.152;2023-02-01T08:32:43;10.10;;;3.00;;
4290;SDS011;2159;50.906;7.152;2023-02-01T08:35:11;14.70;;;3.87;;
4290;SDS011;2159;50.906;7.152;2023-02-01T08:37:40;15.43;;;3.70;;
4290;SDS011;2159;50.906;7.152;2023-02-01T08:40:08;17.37;;;3.57;;
4290;SDS011;2159;50.906;7.152;2023-02-01T08:42:37;13.70;;;3.57;;
4290;SDS011;2159;50.906;7.152;2023-02-01T08:45:20;13.13;;;3.07;;
4290;SDS011;2159;50.906;7.152;2023-02-01T08:47:50;10.67;;;3.67;;
4290;SDS011;2159;50.906;7.152;2023-02-01T08:50:18;10.10;;;3.97;;
4290;SDS011;2159;50.906;7.152;2023-02-01T08:52:48;8.00;;;3.10;;
4290;SDS011;2159;50.906;7.152;2023-02-01T08:55:16;11.67;;;3.83;;
4290;SDS011;2159;50.906;7.152;2023-02-01T08:57:44;16.13;;;3.67;;
4290;SDS011;2159;50.906;7.152;2023-02-01T09:00:14;10.63;;;3.40;;
4290;SDS011;2159;50.906;7.152;2023-02-01T09:02:42;10.83;;;3.07;;
4290;SDS011;2159;50.906;7.152;2023-02-01T09:05:10;15.40;;;3.40;;
4290;SDS011;2159;50.906;7.152;2023-02-01T09:07:38;15.27;;;3.53;;
4290;SDS011;2159;50.906;7.152;2023-02-01T09:10:07;12.27;;;3.07;;
4290;SDS011;2159;50.906;7.152;2023-02-01T09:12:35;12.43;;;2.90;;
4290;SDS011;2159;50.906;7.152;2023-02-01T09:15:04;12.07;;;3.30;;
4290;SDS011;2159;50.906;7.152;2023-02-01T09:17:33;12.30;;;3.27;;
4290;SDS011;2159;50.906;7.152;2023-02-01T09:20:01;9.63;;;2.90;;
4290;SDS011;2159;50.906;7.152;2023-02-01T09:22:28;12.90;;;3.00;;
4290;SDS011;2159;50.906;7.152;2023-02-01T09:24:56;12.60;;;3.30;;
4290;SDS011;2159;50.906;7.152;2023-02-01T09:27:25;12.40;;;3.87;;
4290;SDS011;2159;50.906;7.152;2023-02-01T09:29:52;9.90;;;2.77;;
4290;SDS011;2159;50.906;7.152;2023-02-01T09:32:20;7.03;;;2.90;;
4290;SDS011;2159;50.906;7.152;2023-02-01T09:34:48;13.30;;;3.13;;
4290;SDS011;2159;50.906;7.152;2023-02-01T09:37:16;10.17;;;2.93;;
4290;SDS011;2159;50.906;7.152;2023-02-01T09:39:43;11.50;;;3.00;;
4290;SDS011;2159;50.906;7.152;2023-02-01T09:42:15;9.80;;;2.60;;
4290;SDS011;2159;50.906;7.152;2023-02-01T09:44:57;11.70;;;2.57;;
4290;SDS011;2159;50.906;7.152;2023-02-01T09:47:26;11.70;;;3.00;;
4290;SDS011;2159;50.906;7.152;2023-02-01T09:49:55;9.30;;;2.70;;
4290;SDS011;2159;50.906;7.152;2023-02-01T09:52:24;13.37;;;3.10;;
4290;SDS011;2159;50.906;7.152;2023-02-01T09:54:54;7.83;;;2.90;;
4290;SDS011;2159;50.906;7.152;2023-02-01T09:57:28;16.63;;;3.57;;
4290;SDS011;2159;50.906;7.152;2023-02-01T10:00:00;13.03;;;3.30;;
4290;SDS011;2159;50.906;7.152;2023-02-01T10:02:39;11.47;;;3.03;;
4290;SDS011;2159;50.906;7.152;2023-02-01T10:05:10;13.40;;;3.67;;
4290;SDS011;2159;50.906;7.152;2023-02-01T10:07:41;9.40;;;3.00;;
4290;SDS011;2159;50.906;7.152;2023-02-01T10:10:13;13.67;;;3.20;;
4290;SDS011;2159;50.906;7.152;2023-02-01T10:12:49;10.93;;;3.50;;
4290;SDS011;2159;50.906;7.152;2023-02-01T10:15:24;11.13;;;3.10;;
4290;SDS011;2159;50.906;7.152;2023-02-01T10:18:00;5.83;;;2.87;;
4290;SDS011;2159;50.906;7.152;2023-02-01T10:20:33;11.77;;;3.10;;
4290;SDS011;2159;50.906;7.152;2023-02-01T10:23:07;11.80;;;3.50;;
4290;SDS011;2159;50.906;7.152;2023-02-01T10:25:59;12.00;;;3.03;;
4290;SDS011;2159;50.906;7.152;2023-02-01T10:28:28;12.73;;;3.63;;
4290;SDS011;2159;50.906;7.152;2023-02-01T10:30:57;9.90;;;3.50;;
4290;SDS011;2159;50.906;7.152;2023-02-01T10:33:26;10.63;;;3.50;;
4290;SDS011;2159;50.906;7.152;2023-02-01T10:35:55;11.70;;;3.77;;
4290;SDS011;2159;50.906;7.152;2023-02-01T10:38:26;14.00;;;3.30;;
4290;SDS011;2159;50.906;7.152;2023-02-01T10:40:55;6.13;;;2.57;;
4290;SDS011;2159;50.906;7.152;2023-02-01T10:43:24;10.33;;;3.00;;
4290;SDS011;2159;50.906;7.152;2023-02-01T10:45:51;6.87;;;2.93;;
4290;SDS011;2159;50.906;7.152;2023-02-01T10:48:20;15.67;;;3.37;;
4290;SDS011;2159;50.906;7.152;2023-02-01T10:50:49;15.07;;;3.33;;
4290;SDS011;2159;50.906;7.152;2023-02-01T10:53:20;5.60;;;2.50;;
4290;SDS011;2159;50.906;7.152;2023-02-01T10:55:49;9.63;;;2.67;;
4290;SDS011;2159;50.906;7.152;2023-02-01T10:58:17;10.60;;;3.03;;
4290;SDS011;2159;50.906;7.152;2023-02-01T11:00:46;13.63;;;3.20;;
4290;SDS011;2159;50.906;7.152;2023-02-01T11:03:25;12.83;;;2.60;;
4290;SDS011;2159;50.906;7.152;2023-02-01T11:05:57;9.50;;;2.90;;
4290;SDS011;2159;50.906;7.152;2023-02-01T11:08:25;16.53;;;2.90;;
4290;SDS011;2159;50.906;7.152;2023-02-01T11:10:59;12.87;;;2.90;;
4290;SDS011;2159;50.906;7.152;2023-02-01T11:13:28;11.17;;;3.20;;
4290;SDS011;2159;50.906;7.152;2023-02-01T11:15:57;9.97;;;2.80;;
4290;SDS011;2159;50.906;7.152;2023-02-01T11:18:26;11.50;;;3.33;;
4290;SDS011;2159;50.906;7.152;2023-02-01T11:20:54;9.03;;;2.73;;
4290;SDS011;2159;50.906;7.152;2023-02-01T11:23:23;14.53;;;3.53;;
4290;SDS011;2159;50.906;7.152;2023-02-01T11:25:51;11.73;;;2.90;;
4290;SDS011;2159;50.906;7.152;2023-02-01T11:28:20;9.20;;;3.17;;
4290;SDS011;2159;50.906;7.152;2023-02-01T11:30:48;12.13;;;3.40;;
4290;SDS011;2159;50.906;7.152;2023-02-01T11:33:16;8.03;;;2.70;;
4290;SDS011;2159;50.906;7.152;2023-02-01T11:35:45;9.60;;;2.90;;
4290;SDS011;2159;50.906;7.152;2023-02-01T11:38:19;9.00;;;3.20;;
4290;SDS011;2159;50.906;7.152;2023-02-01T11:40:47;12.33;;;3.37;;
4290;SDS011;2159;50.906;7.152;2023-02-01T11:43:15;9.47;;;2.50;;
4290;SDS011;2159;50.906;7.152;2023-02-01T11:45:53;17.73;;;3.63;;
4290;SDS011;2159;50.906;7.152;2023-02-01T11:48:20;9.27;;;3.43;;
4290;SDS011;2159;50.906;7.152;2023-02-01T11:50:57;11.37;;;3.13;;
4290;SDS011;2159;50.906;7.152;2023-02-01T11:53:35;6.90;;;2.83;;
4290;SDS011;2159;50.906;7.152;2023-02-01T11:56:06;13.17;;;3.50;;
4290;SDS011;2159;50.906;7.152;2023-02-01T11:58:56;6.10;;;3.23;;
4290;SDS011;2159;50.906;7.152;2023-02-01T12:01:31;12.80;;;3.50;;
4290;SDS011;2159;50.906;7.152;2023-02-01T12:04:05;12.27;;;3.70;;
4290;SDS011;2159;50.906;7.152;2023-02-01T12:06:40;9.23;;;3.40;;
4290;SDS011;2159;50.906;7.152;2023-02-01T12:09:22;22.80;;;3.47;;
4290;SDS011;2159;50.906;7.152;2023-02-01T12:11:56;7.73;;;2.70;;
4290;SDS011;2159;50.906;7.152;2023-02-01T12:14:36;10.07;;;3.13;;
4290;SDS011;2159;50.906;7.152;2023-02-01T12:17:12;17.63;;;3.40;;
4290;SDS011;2159;50.906;7.152;2023-02-01T12:19:47;11.00;;;3.00;;
4290;SDS011;2159;50.906;7.152;2023-02-01T12:22:25;7.57;;;3.00;;
4290;SDS011;2159;50.906;7.152;2023-02-01T12:25:00;7.00;;;2.70;;
4290;SDS011;2159;50.906;7.152;2023-02-01T12:27:38;8.73;;;3.10;;
4290;SDS011;2159;50.906;7.152;2023-02-01T12:32:57;10.83;;;2.70;;
4290;SDS011;2159;50.906;7.152;2023-02-01T12:35:36;7.63;;;2.70;;
4290;SDS011;2159;50.906;7.152;2023-02-01T12:38:18;9.97;;;2.97;;
4290;SDS011;2159;50.906;7.152;2023-02-01T12:40:52;13.87;;;4.47;;
4290;SDS011;2159;50.906;7.152;2023-02-01T12:43:34;12.90;;;2.67;;
4290;SDS011;2159;50.906;7.152;2023-02-01T12:46:03;14.70;;;3.00;;
4290;SDS011;2159;50.906;7.152;2023-02-01T12:48:33;6.20;;;2.87;;
4290;SDS011;2159;50.906;7.152;2023-02-01T12:51:02;12.30;;;3.27;;
4290;SDS011;2159;50.906;7.152;2023-02-01T12:53:36;13.73;;;3.20;;
4290;SDS011;2159;50.906;7.152;2023-02-01T12:56:06;9.77;;;2.67;;
4290;SDS011;2159;50.906;7.152;2023-02-01T12:58:38;7.63;;;2.90;;
4290;SDS011;2159;50.906;7.152;2023-02-01T13:01:09;12.87;;;2.87;;
4290;SDS011;2159;50.906;7.152;2023-02-01T13:03:39;10.40;;;3.03;;
4290;SDS011;2159;50.906;7.152;2023-02-01T13:06:10;5.17;;;2.43;;
4290;SDS011;2159;50.906;7.152;2023-02-01T13:08:43;11.40;;;3.33;;
4290;SDS011;2159;50.906;7.152;2023-02-01T13:11:11;13.40;;;3.00;;
4290;SDS011;2159;50.906;7.152;2023-02-01T13:13:44;7.87;;;2.63;;
4290;SDS011;2159;50.906;7.152;2023-02-01T13:16:14;14.60;;;3.03;;
4290;SDS011;2159;50.906;7.152;2023-02-01T13:18:45;7.83;;;2.53;;
4290;SDS011;2159;50.906;7.152;2023-02-01T13:21:14;12.90;;;3.10;;
4290;SDS011;2159;50.906;7.152;2023-02-01T13:23:46;12.70;;;2.93;;
4290;SDS011;2159;50.906;7.152;2023-02-01T13:26:14;9.77;;;2.40;;
4290;SDS011;2159;50.906;7.152;2023-02-01T13:28:42;8.27;;;2.93;;
4290;SDS011;2159;50.906;7.152;2023-02-01T13:31:19;7.60;;;2.73;;
4290;SDS011;2159;50.906;7.152;2023-02-01T13:33:55;12.30;;;2.63;;
4290;SDS011;2159;50.906;7.152;2023-02-01T13:36:42;5.20;;;2.30;;
4290;SDS011;2159;50.906;7.152;2023-02-01T13:41:56;11.43;;;2.43;;
4290;SDS011;2159;50.906;7.152;2023-02-01T13:44:26;11.60;;;3.10;;
4290;SDS011;2159;50.906;7.152;2023-02-01T13:46:56;17.13;;;3.70;;
4290;SDS011;2159;50.906;7.152;2023-02-01T13:49:25;7.57;;;3.10;;
4290;SDS011;2159;50.906;7.152;2023-02-01T13:51:53;9.53;;;2.97;;
4290;SDS011;2159;50.906;7.152;2023-02-01T13:54:26;8.77;;;3.20;;
4290;SDS011;2159;50.906;7.152;2023-02-01T13:56:55;13.43;;;3.07;;
4290;SDS011;2159;50.906;7.152;2023-02-01T14:05:07;16.27;;;3.00;;
4290;SDS011;2159;50.906;7.152;2023-02-01T14:07:35;9.73;;;3.03;;
4290;SDS011;2159;50.906;7.152;2023-02-01T14:12:47;11.87;;;2.70;;
4290;SDS011;2159;50.906;7.152;2023-02-01T14:15:22;10.30;;;2.83;;
4290;SDS011;2159;50.906;7.152;2023-02-01T14:17:51;7.20;;;2.50;;
4290;SDS011;2159;50.906;7.152;2023-02-01T14:23:16;8.30;;;2.77;;
4290;SDS011;2159;50.906;7.152;2023-02-01T14:25:44;10.93;;;2.80;;
4290;SDS011;2159;50.906;7.152;2023-02-01T14:28:21;10.00;;;2.50;;
4290;SDS011;2159;50.906;7.152;2023-02-01T14:30:50;12.43;;;2.97;;
4290;SDS011;2159;50.906;7.152;2023-02-01T14:33:19;6.90;;;2.60;;
4290;SDS011;2159;50.906;7.152;2023-02-01T14:35:55;8.70;;;2.93;;
4290;SDS011;2159;50.906;7.152;2023-02-01T14:38:24;4.93;;;2.50;;
4290;SDS011;2159;50.906;7.152;2023-02-01T14:40:52;8.97;;;2.50;;
4290;SDS011;2159;50.906;7.152;2023-02-01T14:46:03;6.60;;;2.10;;
4290;SDS011;2159;50.906;7.152;2023-02-01T14:48:42;7.53;;;2.50;;
4290;SDS011;2159;50.906;7.152;2023-02-01T14:51:11;6.00;;;2.20;;
4290;SDS011;2159;50.906;7.152;2023-02-01T14:53:40;11.60;;;3.20;;
4290;SDS011;2159;50.906;7.152;2023-02-01T14:56:11;6.83;;;2.43;;
4290;SDS011;2159;50.906;7.152;2023-02-01T14:58:40;4.50;;;2.00;;
4290;SDS011;2159;50.906;7.152;2023-02-01T15:01:17;5.27;;;2.60;;
4290;SDS011;2159;50.906;7.152;2023-02-01T15:03:50;9.47;;;2.73;;
4290;SDS011;2159;50.906;7.152;2023-02-01T15:06:22;7.43;;;2.60;;
4290;SDS011;2159;50.906;7.152;2023-02-01T15:08:51;11.10;;;2.50;;
4290;SDS011;2159;50.906;7.152;2023-02-01T15:11:20;5.80;;;2.20;;
4290;SDS011;2159;50.906;7.152;2023-02-01T15:13:48;11.47;;;2.50;;
4290;SDS011;2159;50.906;7.152;2023-02-01T15:16:20;7.73;;;2.33;;
4290;SDS011;2159;50.906;7.152;2023-02-01T15:18:48;6.63;;;2.20;;
4290;SDS011;2159;50.906;7.152;2023-02-01T15:21:17;10.33;;;2.47;;
4290;SDS011;2159;50.906;7.152;2023-02-01T15:24:09;9.57;;;3.10;;
4290;SDS011;2159;50.906;7.152;2023-02-01T15:26:37;8.30;;;2.30;;
4290;SDS011;2159;50.906;7.152;2023-02-01T15:29:04;8.10;;;2.40;;
4290;SDS011;2159;50.906;7.152;2023-02-01T15:31:35;6.27;;;2.33;;
4290;SDS011;2159;50.906;7.152;2023-02-01T15:34:03;8.10;;;2.60;;
4290;SDS011;2159;50.906;7.152;2023-02-01T15:36:30;7.87;;;2.53;;
4290;SDS011;2159;50.906;7.152;2023-02-01T15:39:18;7.93;;;2.60;;
4290;SDS011;2159;50.906;7.152;2023-02-01T15:41:46;11.50;;;2.53;;
4290;SDS011;2159;50.906;7.152;2023-02-01T15:44:17;8.50;;;2.37;;
4290;SDS011;2159;50.906;7.152;2023-02-01T15:46:48;6.80;;;2.10;;
4290;SDS011;2159;50.906;7.152;2023-02-01T15:49:19;7.47;;;2.37;;
4290;SDS011;2159;50.906;7.152;2023-02-01T15:51:47;7.70;;;2.60;;
4290;SDS011;2159;50.906;7.152;2023-02-01T15:54:16;11.80;;;2.57;;